createdAt,value
2019-01-31T00:02:10.506Z,-0.20
2019-01-31T00:07:59.985Z,-0.20
2019-01-31T00:13:37.634Z,-0.20
2019-01-31T00:18:51.154Z,-0.20
2019-01-31T00:24:15.244Z,-0.10
2019-01-31T00:29:39.667Z,-0.10
2019-01-31T00:34:56.790Z,-0.10
2019-01-31T00:40:25.513Z,-0.10
2019-01-31T00:45:56.669Z,-0.20
2019-01-31T00:51:12.278Z,-0.20
2019-01-31T00:56:39.589Z,-0.20
2019-01-31T01:02:31.498Z,-0.30
2019-01-31T01:07:53.270Z,-0.20
2019-01-31T01:13:05.966Z,-0.20
2019-01-31T01:18:31.527Z,-0.30
2019-01-31T01:23:47.930Z,-0.30
2019-01-31T01:29:41.258Z,-0.30
2019-01-31T01:35:32.845Z,-0.40
2019-01-31T01:41:27.254Z,-0.40
2019-01-31T01:47:06.733Z,-0.40
2019-01-31T01:52:23.561Z,-0.40
2019-01-31T01:58:04.397Z,-0.50
2019-01-31T02:03:43.199Z,-0.50
2019-01-31T02:09:12.271Z,-0.40
2019-01-31T02:14:59.749Z,-0.40
2019-01-31T02:20:57.030Z,-0.40
2019-01-31T02:27:09.039Z,-0.30
2019-01-31T02:32:39.914Z,-0.30
2019-01-31T02:38:04.625Z,-0.30
2019-01-31T02:43:51.937Z,-0.30
2019-01-31T02:49:27.329Z,-0.20
2019-01-31T02:55:04.733Z,-0.20
2019-01-31T03:00:24.125Z,-0.20
2019-01-31T03:06:08.117Z,-0.20
2019-01-31T03:11:46.349Z,-0.20
2019-01-31T03:17:16.810Z,-0.20
2019-01-31T03:23:19.901Z,-0.20
2019-01-31T03:28:49.528Z,-0.10
2019-01-31T03:34:04.409Z,-0.20
2019-01-31T03:39:25.142Z,-0.20
2019-01-31T03:44:34.173Z,-0.20
2019-01-31T03:50:08.419Z,-0.20
2019-01-31T03:55:50.087Z,-0.20
2019-01-31T04:01:20.814Z,-0.20
2019-01-31T04:06:34.009Z,-0.10
2019-01-31T04:11:37.773Z,-0.20
2019-01-31T04:16:41.440Z,-0.20
2019-01-31T04:21:45.123Z,-0.10
2019-01-31T04:26:48.871Z,-0.10
2019-01-31T04:31:52.615Z,-0.10
2019-01-31T04:36:56.289Z,-0.10
2019-01-31T04:41:59.950Z,0.00
2019-01-31T04:47:03.694Z,0.00
2019-01-31T04:52:07.428Z,0.00
2019-01-31T04:57:11.168Z,0.10
2019-01-31T05:02:14.829Z,0.10
2019-01-31T05:07:18.564Z,0.10
2019-01-31T05:12:22.231Z,0.20
2019-01-31T05:17:25.996Z,0.20
2019-01-31T05:22:29.780Z,0.20
2019-01-31T05:27:33.509Z,0.20
2019-01-31T05:32:37.275Z,0.20
2019-01-31T05:37:40.956Z,0.20
2019-01-31T05:42:44.737Z,0.30
2019-01-31T05:47:48.406Z,0.30
2019-01-31T05:52:52.381Z,0.30
2019-01-31T05:57:56.045Z,0.30
2019-01-31T06:03:00.045Z,0.30
2019-01-31T06:08:03.826Z,0.30
2019-01-31T06:13:07.495Z,0.30
2019-01-31T06:18:11.252Z,0.30
2019-01-31T06:23:14.917Z,0.30
2019-01-31T06:28:18.588Z,0.30
2019-01-31T06:33:22.833Z,0.30
2019-01-31T06:38:26.520Z,0.30
2019-01-31T06:43:30.197Z,0.30
2019-01-31T06:48:34.224Z,0.30
2019-01-31T06:53:37.993Z,0.30
2019-01-31T06:58:41.766Z,0.20
2019-01-31T07:03:46.050Z,0.20
2019-01-31T07:08:50.309Z,0.20
2019-01-31T07:13:54.048Z,0.10
2019-01-31T07:18:57.784Z,0.20
2019-01-31T07:24:01.595Z,0.20
2019-01-31T07:29:05.485Z,0.20
2019-01-31T07:34:09.229Z,0.20
2019-01-31T07:39:12.888Z,0.20
2019-01-31T07:44:16.610Z,0.20
2019-01-31T07:49:20.312Z,0.20
2019-01-31T07:54:24.043Z,0.20
2019-01-31T07:59:27.763Z,0.30
2019-01-31T08:04:31.522Z,0.30
2019-01-31T08:09:35.656Z,0.30
2019-01-31T08:14:39.387Z,0.30
2019-01-31T08:19:43.097Z,0.40
2019-01-31T08:24:47.288Z,0.50
2019-01-31T08:29:52.156Z,0.50
2019-01-31T08:34:57.322Z,0.60
2019-01-31T08:40:01.293Z,0.70
2019-01-31T08:45:05.537Z,0.70
2019-01-31T08:50:13.052Z,0.80
2019-01-31T08:55:16.916Z,0.90
2019-01-31T09:00:22.744Z,1.00
2019-01-31T09:05:26.577Z,1.00
2019-01-31T09:10:32.744Z,1.10
2019-01-31T09:15:36.610Z,1.20
2019-01-31T09:20:47.411Z,1.20
2019-01-31T09:26:29.885Z,1.30
2019-01-31T09:32:16.398Z,1.40
2019-01-31T09:38:12.491Z,1.40
2019-01-31T09:43:40.617Z,1.50
2019-01-31T09:49:00.894Z,1.60
2019-01-31T09:54:09.845Z,1.60
2019-01-31T09:59:23.620Z,1.70
2019-01-31T10:04:42.830Z,1.80
2019-01-31T10:10:41.010Z,1.90
2019-01-31T10:16:05.184Z,2.00
2019-01-31T10:21:38.967Z,2.10
2019-01-31T10:27:18.788Z,2.30
2019-01-31T10:32:51.680Z,2.30
2019-01-31T10:38:19.376Z,2.50
2019-01-31T10:43:28.476Z,2.50
2019-01-31T10:48:53.557Z,2.60
2019-01-31T10:54:25.416Z,2.60
2019-01-31T10:59:55.692Z,2.70
2019-01-31T11:05:16.452Z,2.70
2019-01-31T11:10:28.612Z,2.80
2019-01-31T11:16:00.081Z,2.90
2019-01-31T11:21:57.996Z,3.00
2019-01-31T11:27:39.039Z,3.10
2019-01-31T11:33:27.404Z,3.10
2019-01-31T11:38:43.045Z,3.20
2019-01-31T11:44:25.081Z,3.20
2019-01-31T11:49:56.833Z,3.30
2019-01-31T11:55:57.140Z,3.30
2019-01-31T12:01:00.896Z,3.40
2019-01-31T12:06:04.805Z,3.50
2019-01-31T12:11:08.557Z,3.50
2019-01-31T12:16:12.301Z,3.60
2019-01-31T12:21:16.168Z,3.60
2019-01-31T12:26:19.845Z,3.70
2019-01-31T12:31:23.604Z,3.70
2019-01-31T12:36:28.911Z,3.80
2019-01-31T12:41:32.653Z,3.80
2019-01-31T12:46:36.348Z,3.80
2019-01-31T12:51:40.281Z,3.90
2019-01-31T12:56:43.947Z,4.00
2019-01-31T13:01:47.671Z,4.10
2019-01-31T13:06:51.398Z,4.20
2019-01-31T13:11:55.233Z,4.20
2019-01-31T13:16:58.975Z,4.30
2019-01-31T13:22:02.693Z,4.30
2019-01-31T13:27:06.447Z,4.30
2019-01-31T13:32:10.694Z,4.30
2019-01-31T13:37:14.405Z,4.30
2019-01-31T13:42:18.416Z,4.20
2019-01-31T13:47:22.252Z,4.20
2019-01-31T13:52:26.004Z,4.20
2019-01-31T13:57:29.689Z,4.10
2019-01-31T14:02:33.369Z,4.10
2019-01-31T14:07:37.129Z,4.00
2019-01-31T14:12:40.809Z,4.00
2019-01-31T14:17:44.476Z,4.00
2019-01-31T14:22:48.307Z,3.90
2019-01-31T14:27:52.091Z,3.80
2019-01-31T14:32:56.390Z,3.80
2019-01-31T14:38:00.214Z,3.80
2019-01-31T14:43:04.677Z,3.70
2019-01-31T14:48:08.356Z,3.60
2019-01-31T14:53:12.104Z,3.60
2019-01-31T14:58:15.840Z,3.50
2019-01-31T15:03:19.616Z,3.50
2019-01-31T15:08:23.289Z,3.40
2019-01-31T15:13:26.977Z,3.30
2019-01-31T15:18:30.669Z,3.20
2019-01-31T15:23:34.349Z,3.20
2019-01-31T15:28:38.024Z,3.20
2019-01-31T15:33:41.702Z,3.10
2019-01-31T15:38:45.384Z,3.10
2019-01-31T15:43:49.186Z,3.00
2019-01-31T15:48:52.953Z,2.90
2019-01-31T15:53:56.632Z,2.90
2019-01-31T15:59:00.377Z,2.90
2019-01-31T16:04:04.493Z,2.80
2019-01-31T16:09:09.437Z,2.80
2019-01-31T16:14:13.304Z,2.80
2019-01-31T16:19:16.993Z,2.70
2019-01-31T16:24:20.703Z,2.70
2019-01-31T16:29:24.449Z,2.70
2019-01-31T16:34:28.433Z,2.60
2019-01-31T16:39:33.041Z,2.60
2019-01-31T16:44:36.961Z,2.60
2019-01-31T16:49:43.992Z,2.50
2019-01-31T16:54:47.719Z,2.50
2019-01-31T16:59:51.384Z,2.40
2019-01-31T17:04:55.065Z,2.40
2019-01-31T17:09:58.745Z,2.40
2019-01-31T17:15:02.469Z,2.40
2019-01-31T17:20:09.406Z,2.30
2019-01-31T17:25:13.533Z,2.30
2019-01-31T17:30:19.759Z,2.30
2019-01-31T17:35:23.581Z,2.20
2019-01-31T17:40:29.591Z,2.20
2019-01-31T17:45:33.368Z,2.20
2019-01-31T17:50:37.034Z,2.20
2019-01-31T17:55:41.670Z,2.20
2019-01-31T18:00:51.495Z,2.20
2019-01-31T18:05:55.793Z,2.20
2019-01-31T18:11:00.304Z,2.20
2019-01-31T18:16:04.231Z,2.10
2019-01-31T18:21:07.895Z,2.10
2019-01-31T18:26:11.560Z,2.10
2019-01-31T18:31:15.216Z,2.10
2019-01-31T18:36:18.939Z,2.10
2019-01-31T18:41:22.765Z,2.10
2019-01-31T18:46:32.642Z,2.10
2019-01-31T18:51:36.317Z,2.00
2019-01-31T18:56:40.408Z,2.10
2019-01-31T19:01:44.541Z,2.00
2019-01-31T19:06:49.910Z,2.00
2019-01-31T19:11:53.729Z,2.00
2019-01-31T19:16:57.703Z,2.00
2019-01-31T19:22:01.795Z,1.90
2019-01-31T19:27:06.631Z,1.90
2019-01-31T19:32:10.585Z,1.80
2019-01-31T19:37:14.885Z,1.80
2019-01-31T19:42:18.572Z,1.70
2019-01-31T19:47:22.225Z,1.70
2019-01-31T19:52:26.193Z,1.60
2019-01-31T19:57:31.094Z,1.60
2019-01-31T20:02:35.095Z,1.50
2019-01-31T20:07:39.364Z,1.50
2019-01-31T20:12:43.087Z,1.40
2019-01-31T20:17:47.547Z,1.40
2019-01-31T20:22:53.053Z,1.30
2019-01-31T20:27:57.269Z,1.20
2019-01-31T20:33:06.470Z,1.10
2019-01-31T20:38:12.191Z,1.10
2019-01-31T20:43:16.961Z,1.00
2019-01-31T20:48:21.702Z,0.90
2019-01-31T20:53:25.859Z,0.90
2019-01-31T20:58:30.795Z,0.80
2019-01-31T21:03:35.260Z,0.80
2019-01-31T21:08:39.788Z,0.70
2019-01-31T21:13:43.568Z,0.60
2019-01-31T21:18:48.224Z,0.60
2019-01-31T21:23:52.170Z,0.60
2019-01-31T21:28:56.352Z,0.50
2019-01-31T21:34:00.102Z,0.50
2019-01-31T21:39:06.485Z,0.50
2019-01-31T21:44:10.200Z,0.40
2019-01-31T21:49:13.876Z,0.40
2019-01-31T21:54:17.549Z,0.30
2019-01-31T21:59:21.339Z,0.30
2019-01-31T22:04:25.008Z,0.30
2019-01-31T22:09:28.738Z,0.30
2019-01-31T22:14:32.437Z,0.20
2019-01-31T22:19:36.108Z,0.20
2019-01-31T22:24:39.833Z,0.10
2019-01-31T22:29:43.533Z,0.10
2019-01-31T22:34:47.204Z,0.10
2019-01-31T22:39:50.993Z,0.00
2019-01-31T22:44:54.724Z,0.00
2019-01-31T22:49:58.476Z,0.00
2019-01-31T22:55:02.166Z,-0.10
2019-01-31T23:00:15.959Z,-0.10
2019-01-31T23:05:19.749Z,-0.10
2019-01-31T23:10:23.729Z,-0.20
2019-01-31T23:15:27.416Z,-0.20
2019-01-31T23:20:31.341Z,-0.30
2019-01-31T23:25:40.214Z,-0.30
2019-01-31T23:30:40.529Z,-0.30
2019-01-31T23:35:44.306Z,-0.40
2019-01-31T23:40:47.974Z,-0.40
2019-01-31T23:45:51.649Z,-0.40
2019-01-31T23:50:55.313Z,-0.40
2019-01-31T23:55:58.974Z,-0.50
